createdAt,value
2023-02-27T00:00:40.826Z,67.07
2023-02-27T00:04:04.619Z,67.49
2023-02-27T00:08:02.304Z,66.98
2023-02-27T00:11:44.436Z,67.44
2023-02-27T00:15:30.340Z,67.50
2023-02-27T00:18:55.025Z,68.35
2023-02-27T00:22:53.977Z,69.08
2023-02-27T00:26:36.069Z,68.94
2023-02-27T00:30:17.498Z,69.52
2023-02-27T00:33:39.892Z,70.02
2023-02-27T00:37:18.062Z,69.74
2023-02-27T00:41:14.222Z,70.10
2023-02-27T00:44:36.921Z,71.36
2023-02-27T00:48:15.502Z,71.65
2023-02-27T00:51:52.678Z,72.52
2023-02-27T00:55:48.580Z,73.04
2023-02-27T00:59:10.881Z,73.99
2023-02-27T01:03:09.246Z,74.43
2023-02-27T01:06:33.449Z,74.59
2023-02-27T01:10:32.456Z,75.12
2023-02-27T01:13:57.472Z,75.45
2023-02-27T01:17:33.791Z,75.85
2023-02-27T01:21:13.123Z,76.32
2023-02-27T01:24:48.670Z,76.65
2023-02-27T01:28:45.756Z,77.23
2023-02-27T01:32:26.969Z,77.19
2023-02-27T01:36:10.877Z,77.62
2023-02-27T01:39:53.117Z,78.08
2023-02-27T01:43:20.165Z,78.44
2023-02-27T01:46:53.074Z,78.42
2023-02-27T01:50:31.727Z,79.00
2023-02-27T01:54:13.242Z,79.16
2023-02-27T01:58:09.238Z,79.19
2023-02-27T02:01:37.167Z,79.19
2023-02-27T02:05:09.790Z,79.50
2023-02-27T02:08:50.464Z,79.31
2023-02-27T02:12:44.491Z,79.57
2023-02-27T02:16:44.633Z,79.58
2023-02-27T02:20:25.043Z,79.62
2023-02-27T02:24:39.430Z,79.63
2023-02-27T02:28:52.473Z,79.70
2023-02-27T02:33:09.672Z,79.71
2023-02-27T02:37:16.566Z,80.08
2023-02-27T02:40:41.745Z,80.08
2023-02-27T02:44:40.326Z,80.15
2023-02-27T02:48:16.243Z,80.45
2023-02-27T02:51:52.423Z,80.43
2023-02-27T02:55:35.154Z,80.60
2023-02-27T02:59:25.445Z,80.37
2023-02-27T03:02:55.254Z,80.64
2023-02-27T03:06:33.475Z,80.72
2023-02-27T03:10:17.405Z,81.20
2023-02-27T03:13:53.026Z,81.29
2023-02-27T03:17:43.748Z,81.09
2023-02-27T03:21:17.035Z,81.13
2023-02-27T03:25:08.509Z,81.32
2023-02-27T03:28:36.205Z,81.19
2023-02-27T03:33:03.529Z,81.39
2023-02-27T03:36:42.761Z,81.96
2023-02-27T03:40:27.435Z,82.09
2023-02-27T03:44:04.212Z,82.02
2023-02-27T03:47:50.547Z,82.11
2023-02-27T03:51:19.408Z,82.37
2023-02-27T03:55:20.457Z,82.37
2023-02-27T03:59:08.691Z,82.26
2023-02-27T04:02:35.256Z,82.50
2023-02-27T04:06:50.774Z,82.54
2023-02-27T04:10:47.762Z,82.63
2023-02-27T04:14:59.070Z,82.58
2023-02-27T04:18:59.056Z,82.74
2023-02-27T04:22:43.492Z,82.74
2023-02-27T04:26:52.115Z,82.66
2023-02-27T04:30:39.336Z,82.74
2023-02-27T04:34:37.633Z,82.71
2023-02-27T04:38:16.853Z,82.89
2023-02-27T04:41:47.376Z,82.91
2023-02-27T04:45:22.113Z,82.79
2023-02-27T04:49:28.565Z,82.80
2023-02-27T04:52:59.996Z,82.59
2023-02-27T04:56:53.546Z,82.42
2023-02-27T05:00:20.675Z,82.37
2023-02-27T05:04:18.780Z,82.60
2023-02-27T05:07:48.245Z,82.70
2023-02-27T05:11:28.974Z,82.58
2023-02-27T05:14:58.070Z,82.84
2023-02-27T05:18:53.900Z,82.86
2023-02-27T05:23:00.307Z,82.72
2023-02-27T05:27:09.634Z,82.78
2023-02-27T05:30:42.774Z,82.87
2023-02-27T05:34:54.479Z,82.78
2023-02-27T05:38:39.034Z,82.81
2023-02-27T05:42:33.911Z,82.96
2023-02-27T05:46:11.576Z,82.96
2023-02-27T05:49:54.044Z,82.87
2023-02-27T05:53:40.814Z,83.11
2023-02-27T05:57:28.561Z,82.95
2023-02-27T06:01:13.945Z,83.20
2023-02-27T06:04:55.031Z,83.02
2023-02-27T06:08:40.249Z,82.85
2023-02-27T06:12:07.170Z,82.88
2023-02-27T06:15:40.521Z,83.00
2023-02-27T06:19:18.038Z,83.17
2023-02-27T06:23:18.267Z,83.08
2023-02-27T06:26:59.701Z,83.25
2023-02-27T06:30:21.929Z,83.21
2023-02-27T06:34:24.196Z,83.22
2023-02-27T06:38:05.744Z,83.39
2023-02-27T06:41:46.756Z,83.38
2023-02-27T06:45:21.710Z,83.93
2023-02-27T06:48:47.251Z,83.95
2023-02-27T06:52:44.287Z,84.20
2023-02-27T06:56:27.155Z,84.45
2023-02-27T06:59:55.872Z,84.47
2023-02-27T07:03:55.177Z,84.85
2023-02-27T07:07:38.727Z,84.94
2023-02-27T07:11:02.843Z,85.15
2023-02-27T07:14:58.399Z,85.45
2023-02-27T07:18:25.655Z,85.66
2023-02-27T07:22:17.311Z,86.15
2023-02-27T07:26:03.504Z,86.05
2023-02-27T07:29:25.894Z,86.29
2023-02-27T07:33:04.044Z,86.79
2023-02-27T07:36:41.329Z,86.67
2023-02-27T07:40:36.069Z,86.64
2023-02-27T07:44:23.445Z,86.78
2023-02-27T07:47:46.389Z,86.96
2023-02-27T07:51:43.884Z,87.10
2023-02-27T07:55:06.609Z,86.92
2023-02-27T07:58:43.942Z,87.59
2023-02-27T08:02:40.493Z,88.03
2023-02-27T08:06:03.516Z,87.91
2023-02-27T08:09:40.936Z,87.68
2023-02-27T08:13:25.245Z,87.40
2023-02-27T08:17:17.959Z,87.00
2023-02-27T08:21:00.604Z,86.60
2023-02-27T08:24:24.516Z,85.52
2023-02-27T08:28:02.200Z,83.61
2023-02-27T08:32:01.570Z,82.70
2023-02-27T08:35:46.194Z,82.34
2023-02-27T08:39:30.614Z,80.80
2023-02-27T08:42:56.667Z,80.76
2023-02-27T08:46:50.437Z,79.90
2023-02-27T08:50:15.392Z,79.07
2023-02-27T08:53:59.184Z,77.84
2023-02-27T08:57:32.798Z,78.16
2023-02-27T09:01:08.688Z,77.52
2023-02-27T09:05:05.494Z,76.68
2023-02-27T09:08:48.012Z,76.51
2023-02-27T09:12:14.253Z,76.94
2023-02-27T09:16:11.638Z,76.17
2023-02-27T09:19:34.460Z,74.82
2023-02-27T09:23:12.040Z,75.12
2023-02-27T09:26:50.674Z,74.86
2023-02-27T09:30:46.569Z,76.04
2023-02-27T09:34:28.946Z,76.28
2023-02-27T09:37:51.421Z,76.04
2023-02-27T09:41:54.123Z,75.83
2023-02-27T09:45:38.781Z,75.83
2023-02-27T09:49:04.050Z,74.79
2023-02-27T09:52:58.886Z,74.80
2023-02-27T09:56:35.635Z,75.52
2023-02-27T10:00:07.454Z,75.18
2023-02-27T10:04:26.525Z,75.22
2023-02-27T10:08:25.812Z,74.57
2023-02-27T10:12:28.559Z,74.75
2023-02-27T10:16:14.191Z,73.25
2023-02-27T10:19:38.901Z,72.66
2023-02-27T10:23:18.846Z,69.81
2023-02-27T10:26:55.173Z,69.36
2023-02-27T10:30:35.056Z,70.09
2023-02-27T10:34:13.313Z,69.46
2023-02-27T10:38:14.391Z,71.00
2023-02-27T10:41:39.937Z,67.39
2023-02-27T10:45:34.272Z,65.36
2023-02-27T10:49:19.900Z,63.41
2023-02-27T10:53:16.168Z,66.73
2023-02-27T10:57:01.842Z,62.61
2023-02-27T11:00:44.098Z,58.40
2023-02-27T11:04:33.520Z,58.48
2023-02-27T11:08:09.490Z,58.30
2023-02-27T11:11:52.809Z,59.36
2023-02-27T11:15:37.756Z,59.49
2023-02-27T11:19:00.582Z,59.30
2023-02-27T11:22:37.972Z,61.05
2023-02-27T11:26:20.745Z,62.50
2023-02-27T11:30:07.392Z,63.18
2023-02-27T11:33:58.112Z,63.25
2023-02-27T11:37:35.883Z,61.50
2023-02-27T11:41:02.192Z,62.83
2023-02-27T11:44:50.637Z,59.77
2023-02-27T11:48:46.470Z,60.27
2023-02-27T11:52:48.181Z,60.79
2023-02-27T11:56:38.305Z,61.23
2023-02-27T12:00:41.822Z,61.34
2023-02-27T12:04:28.361Z,60.74
2023-02-27T12:08:00.600Z,59.88
2023-02-27T12:11:51.753Z,61.83
2023-02-27T12:15:39.923Z,60.68
2023-02-27T12:19:29.114Z,62.13
2023-02-27T12:22:54.574Z,62.95
2023-02-27T12:26:39.505Z,63.30
2023-02-27T12:30:29.013Z,63.34
2023-02-27T12:34:20.061Z,61.00
2023-02-27T12:38:02.615Z,60.48
2023-02-27T12:41:57.063Z,61.68
2023-02-27T12:45:52.941Z,63.10
2023-02-27T12:49:24.190Z,61.05
2023-02-27T12:53:41.399Z,60.93
2023-02-27T12:57:39.448Z,59.96
2023-02-27T13:01:13.881Z,61.56
2023-02-27T13:05:09.219Z,62.24
2023-02-27T13:08:54.133Z,61.93
2023-02-27T13:12:28.783Z,61.63
2023-02-27T13:16:19.169Z,62.14
2023-02-27T13:19:50.773Z,62.10
2023-02-27T13:23:48.790Z,61.68
2023-02-27T13:27:39.993Z,63.05
2023-02-27T13:31:19.526Z,61.10
2023-02-27T13:34:48.410Z,61.56
2023-02-27T13:38:54.111Z,62.20
2023-02-27T13:42:36.554Z,61.55
2023-02-27T13:46:32.325Z,62.72
2023-02-27T13:49:55.637Z,61.83
2023-02-27T13:53:32.045Z,60.73
2023-02-27T13:57:33.484Z,62.17
2023-02-27T14:01:26.954Z,60.56
2023-02-27T14:05:15.342Z,60.76
2023-02-27T14:09:12.816Z,60.81
2023-02-27T14:12:58.280Z,60.24
2023-02-27T14:16:38.003Z,60.30
2023-02-27T14:20:23.432Z,60.11
2023-02-27T14:23:49.820Z,59.60
2023-02-27T14:27:42.382Z,58.13
2023-02-27T14:31:26.089Z,58.99
2023-02-27T14:35:15.194Z,58.72
2023-02-27T14:38:58.259Z,57.42
2023-02-27T14:43:03.885Z,58.30
2023-02-27T14:46:27.080Z,57.51
2023-02-27T14:50:38.177Z,59.05
2023-02-27T14:54:25.708Z,58.83
2023-02-27T14:58:06.555Z,58.20
2023-02-27T15:01:50.434Z,59.02
2023-02-27T15:05:20.285Z,59.21
2023-02-27T15:09:20.124Z,58.99
2023-02-27T15:12:45.245Z,60.03
2023-02-27T15:16:39.780Z,59.06
2023-02-27T15:20:26.685Z,57.97
2023-02-27T15:24:00.984Z,58.23
2023-02-27T15:28:32.340Z,59.09
2023-02-27T15:31:54.951Z,59.08
2023-02-27T15:35:39.135Z,59.22
2023-02-27T15:39:31.652Z,56.18
2023-02-27T15:42:56.556Z,56.94
2023-02-27T15:46:54.043Z,56.95
2023-02-27T15:50:41.818Z,57.53
2023-02-27T15:54:23.484Z,58.06
2023-02-27T15:58:26.229Z,58.57
2023-02-27T16:01:49.867Z,58.01
2023-02-27T16:05:37.382Z,58.59
2023-02-27T16:09:28.165Z,59.58
2023-02-27T16:12:50.956Z,59.49
2023-02-27T16:16:35.033Z,59.91
2023-02-27T16:20:29.655Z,59.22
2023-02-27T16:23:54.038Z,60.00
2023-02-27T16:27:31.813Z,61.10
2023-02-27T16:31:25.361Z,61.19
2023-02-27T16:34:48.488Z,61.33
2023-02-27T16:38:25.551Z,61.04
2023-02-27T16:42:22.451Z,61.29
2023-02-27T16:45:51.802Z,61.78
2023-02-27T16:49:25.916Z,62.14
2023-02-27T16:53:02.638Z,62.13
2023-02-27T16:56:38.996Z,62.40
2023-02-27T17:00:34.529Z,62.01
2023-02-27T17:04:25.648Z,62.32
2023-02-27T17:07:48.754Z,62.52
2023-02-27T17:11:32.488Z,63.07
2023-02-27T17:15:26.975Z,63.30
2023-02-27T17:19:14.738Z,62.86
2023-02-27T17:22:39.931Z,63.33
2023-02-27T17:26:35.550Z,63.08
2023-02-27T17:30:00.589Z,63.49
2023-02-27T17:33:58.789Z,63.58
2023-02-27T17:37:23.131Z,63.49
2023-02-27T17:41:09.789Z,62.91
2023-02-27T17:44:59.347Z,63.68
2023-02-27T17:48:24.266Z,64.02
2023-02-27T17:52:21.688Z,64.16
2023-02-27T17:55:45.241Z,63.40
2023-02-27T17:59:45.297Z,64.01
2023-02-27T18:03:11.220Z,63.64
2023-02-27T18:06:50.636Z,63.77
2023-02-27T18:10:50.655Z,64.02
2023-02-27T18:14:32.360Z,63.43
2023-02-27T18:17:55.237Z,63.77
2023-02-27T18:21:35.507Z,64.31
2023-02-27T18:25:29.514Z,64.61
2023-02-27T18:29:15.895Z,64.05
2023-02-27T18:32:38.889Z,63.64
2023-02-27T18:36:17.092Z,63.05
2023-02-27T18:39:54.229Z,63.55
2023-02-27T18:43:33.245Z,63.83
2023-02-27T18:47:30.196Z,64.22
2023-02-27T18:51:16.612Z,63.42
2023-02-27T18:54:42.428Z,63.02
2023-02-27T18:58:17.317Z,62.98
2023-02-27T19:02:16.764Z,63.41
2023-02-27T19:05:57.884Z,63.19
2023-02-27T19:09:23.079Z,62.81
2023-02-27T19:13:16.938Z,63.53
2023-02-27T19:17:02.358Z,63.77
2023-02-27T19:20:24.870Z,63.28
2023-02-27T19:24:22.149Z,63.55
2023-02-27T19:27:53.396Z,63.59
2023-02-27T19:31:42.012Z,63.93
2023-02-27T19:35:05.535Z,64.06
2023-02-27T19:38:42.330Z,64.47
2023-02-27T19:42:19.814Z,64.88
2023-02-27T19:46:25.306Z,65.02
2023-02-27T19:49:47.835Z,65.28
2023-02-27T19:53:47.672Z,65.26
2023-02-27T19:57:12.006Z,65.22
2023-02-27T20:00:50.081Z,65.06
2023-02-27T20:04:44.755Z,65.39
2023-02-27T20:08:10.495Z,65.60
2023-02-27T20:12:07.170Z,65.68
2023-02-27T20:15:55.810Z,65.66
2023-02-27T20:19:19.347Z,66.20
2023-02-27T20:23:16.429Z,66.06
2023-02-27T20:26:59.264Z,66.31
2023-02-27T20:30:25.583Z,66.34
2023-02-27T20:34:01.330Z,66.45
2023-02-27T20:37:37.017Z,66.77
2023-02-27T20:41:37.073Z,66.92
2023-02-27T20:44:59.817Z,66.87
2023-02-27T20:48:40.360Z,66.88
2023-02-27T20:52:33.981Z,66.56
2023-02-27T20:56:19.766Z,66.74
2023-02-27T21:00:05.903Z,66.72
2023-02-27T21:03:51.158Z,66.69
2023-02-27T21:07:18.652Z,66.49
2023-02-27T21:10:51.705Z,66.64
2023-02-27T21:14:48.644Z,66.90
2023-02-27T21:18:11.824Z,66.94
2023-02-27T21:21:48.906Z,66.96
2023-02-27T21:25:45.081Z,67.00
2023-02-27T21:29:16.948Z,67.40
2023-02-27T21:32:45.277Z,67.13
2023-02-27T21:36:43.509Z,67.25
2023-02-27T21:40:08.924Z,67.36
2023-02-27T21:43:43.683Z,67.37
2023-02-27T21:47:22.482Z,67.49
2023-02-27T21:51:29.763Z,67.68
2023-02-27T21:55:00.269Z,67.67
2023-02-27T21:58:39.451Z,67.77
2023-02-27T22:02:15.484Z,67.69
2023-02-27T22:06:14.376Z,67.99
2023-02-27T22:09:57.013Z,67.87
2023-02-27T22:13:19.203Z,68.05
2023-02-27T22:16:56.913Z,68.04
2023-02-27T22:20:34.910Z,68.27
2023-02-27T22:24:31.182Z,68.32
2023-02-27T22:28:15.292Z,68.26
2023-02-27T22:31:58.580Z,68.24
2023-02-27T22:35:23.567Z,68.58
2023-02-27T22:39:00.064Z,68.85
2023-02-27T22:42:55.966Z,68.79
2023-02-27T22:46:25.791Z,68.88
2023-02-27T22:49:56.059Z,69.17
2023-02-27T22:53:41.092Z,70.01
2023-02-27T22:57:11.524Z,69.90
2023-02-27T23:01:19.743Z,69.78
2023-02-27T23:04:43.875Z,69.99
2023-02-27T23:08:41.721Z,69.99
2023-02-27T23:12:22.961Z,69.88
2023-02-27T23:15:48.360Z,70.28
2023-02-27T23:19:43.208Z,70.03
2023-02-27T23:23:09.653Z,70.36
2023-02-27T23:27:24.585Z,70.05
2023-02-27T23:30:48.920Z,70.13
2023-02-27T23:34:35.099Z,70.05
2023-02-27T23:38:25.446Z,69.95
2023-02-27T23:42:06.988Z,70.45
2023-02-27T23:45:29.231Z,70.24
2023-02-27T23:49:26.975Z,70.08
2023-02-27T23:53:15.409Z,70.22
2023-02-27T23:56:37.873Z,70.29
